sensor_id;sensor_type;location;lat;lon;timestamp;pressure;altitude;pressure_sealevel;temperature;humidity
56142;BME280;42018;48.588;10.836;2023-06-26T03:11:49;96803.59;;;18.30;61.35
56142;BME280;42018;48.588;10.836;2023-06-26T03:33:11;96792.16;;;17.98;62.08
56142;BME280;42018;48.588;10.836;2023-06-26T04:06:22;96783.19;;;17.54;62.60
56142;BME280;42018;48.588;10.836;2023-06-26T04:09:19;96784.06;;;17.81;62.10
56142;BME280;42018;48.588;10.836;2023-06-26T04:49:41;96811.53;;;18.61;59.15
56142;BME280;42018;48.588;10.836;2023-06-26T05:03:50;96800.28;;;18.41;60.50
56142;BME280;42018;48.588;10.836;2023-06-26T05:06:36;96800.63;;;18.49;60.03
56142;BME280;42018;48.588;10.836;2023-06-26T05:09:22;96807.38;;;18.46;59.65
56142;BME280;42018;48.588;10.836;2023-06-26T05:23:52;96798.94;;;18.79;59.23
56142;BME280;42018;48.588;10.836;2023-06-26T05:26:41;96800.97;;;18.82;59.77
56142;BME280;42018;48.588;10.836;2023-06-26T05:33:35;96799.81;;;18.57;61.55
56142;BME280;42018;48.588;10.836;2023-06-26T05:36:22;96802.66;;;18.60;62.07
56142;BME280;42018;48.588;10.836;2023-06-26T05:39:18;96804.72;;;18.63;61.65
56142;BME280;42018;48.588;10.836;2023-06-26T05:42:04;96806.16;;;18.70;62.44
56142;BME280;42018;48.588;10.836;2023-06-26T05:48:42;96802.41;;;18.79;62.02
56142;BME280;42018;48.588;10.836;2023-06-26T05:51:28;96802.06;;;18.98;61.50
56142;BME280;42018;48.588;10.836;2023-06-26T05:54:38;96800.66;;;18.83;62.13
56142;BME280;42018;48.588;10.836;2023-06-26T06:01:05;96801.06;;;19.29;59.62
56142;BME280;42018;48.588;10.836;2023-06-26T06:03:50;96801.41;;;19.19;59.69
56142;BME280;42018;48.588;10.836;2023-06-26T06:06:36;96800.38;;;19.49;58.47
56142;BME280;42018;48.588;10.836;2023-06-26T06:09:21;96793.34;;;19.74;57.79
56142;BME280;42018;48.588;10.836;2023-06-26T06:12:07;96799.56;;;19.57;59.45
56142;BME280;42018;48.588;10.836;2023-06-26T06:14:53;96797.66;;;19.58;60.00
56142;BME280;42018;48.588;10.836;2023-06-26T06:17:38;96791.34;;;19.54;60.49
56142;BME280;42018;48.588;10.836;2023-06-26T06:20:24;96789.09;;;19.73;59.84
56142;BME280;42018;48.588;10.836;2023-06-26T06:23:10;96793.03;;;20.05;58.98
56142;BME280;42018;48.588;10.836;2023-06-26T06:25:55;96794.72;;;20.19;58.28
56142;BME280;42018;48.588;10.836;2023-06-26T06:28:41;96787.91;;;20.42;57.51
56142;BME280;42018;48.588;10.836;2023-06-26T06:31:26;96796.44;;;20.44;57.41
56142;BME280;42018;48.588;10.836;2023-06-26T06:34:13;96790.41;;;20.47;57.20
56142;BME280;42018;48.588;10.836;2023-06-26T06:36:58;96789.81;;;20.42;57.05
56142;BME280;42018;48.588;10.836;2023-06-26T06:39:44;96791.34;;;20.51;56.79
56142;BME280;42018;48.588;10.836;2023-06-26T06:42:29;96792.78;;;20.70;57.70
56142;BME280;42018;48.588;10.836;2023-06-26T06:45:15;96793.53;;;20.79;56.04
56142;BME280;42018;48.588;10.836;2023-06-26T06:48:00;96794.50;;;20.95;55.60
56142;BME280;42018;48.588;10.836;2023-06-26T06:50:45;96788.00;;;21.09;55.38
56142;BME280;42018;48.588;10.836;2023-06-26T06:53:31;96797.06;;;21.25;54.99
56142;BME280;42018;48.588;10.836;2023-06-26T06:56:16;96798.06;;;21.33;54.60
56142;BME280;42018;48.588;10.836;2023-06-26T06:59:02;96794.13;;;21.30;54.15
56142;BME280;42018;48.588;10.836;2023-06-26T07:01:47;96790.72;;;21.42;53.78
56142;BME280;42018;48.588;10.836;2023-06-26T07:04:32;96793.44;;;21.54;53.40
56142;BME280;42018;48.588;10.836;2023-06-26T07:07:18;96790.31;;;21.64;52.80
56142;BME280;42018;48.588;10.836;2023-06-26T07:10:13;96790.16;;;21.48;52.32
56142;BME280;42018;48.588;10.836;2023-06-26T07:12:59;96783.78;;;21.65;52.78
56142;BME280;42018;48.588;10.836;2023-06-26T07:15:45;96791.53;;;21.91;53.00
56142;BME280;42018;48.588;10.836;2023-06-26T07:18:30;96781.91;;;22.15;52.19
56142;BME280;42018;48.588;10.836;2023-06-26T07:21:16;96781.09;;;22.27;51.31
56142;BME280;42018;48.588;10.836;2023-06-26T07:24:01;96779.38;;;22.46;51.54
56142;BME280;42018;48.588;10.836;2023-06-26T07:26:47;96780.03;;;22.56;51.14
56142;BME280;42018;48.588;10.836;2023-06-26T07:29:32;96780.34;;;22.66;51.52
56142;BME280;42018;48.588;10.836;2023-06-26T07:32:18;96771.16;;;22.83;51.01
56142;BME280;42018;48.588;10.836;2023-06-26T07:35:04;96775.78;;;23.11;51.03
56142;BME280;42018;48.588;10.836;2023-06-26T07:37:49;96768.16;;;23.29;50.44
56142;BME280;42018;48.588;10.836;2023-06-26T07:40:35;96776.03;;;23.50;50.03
56142;BME280;42018;48.588;10.836;2023-06-26T07:43:20;96768.00;;;23.37;48.73
56142;BME280;42018;48.588;10.836;2023-06-26T07:46:05;96767.91;;;23.65;49.22
56142;BME280;42018;48.588;10.836;2023-06-26T07:48:51;96768.25;;;23.80;48.92
56142;BME280;42018;48.588;10.836;2023-06-26T07:51:36;96765.56;;;23.96;48.16
56142;BME280;42018;48.588;10.836;2023-06-26T07:54:21;96768.91;;;24.24;49.19
56142;BME280;42018;48.588;10.836;2023-06-26T07:57:07;96758.84;;;24.41;48.20
56142;BME280;42018;48.588;10.836;2023-06-26T07:59:53;96756.84;;;24.57;47.73
56142;BME280;42018;48.588;10.836;2023-06-26T08:02:39;96755.22;;;24.36;45.99
56142;BME280;42018;48.588;10.836;2023-06-26T08:05:24;96755.16;;;24.33;47.16
56142;BME280;42018;48.588;10.836;2023-06-26T08:08:09;96753.28;;;24.53;48.11
56142;BME280;42018;48.588;10.836;2023-06-26T08:10:55;96752.97;;;24.97;47.30
56142;BME280;42018;48.588;10.836;2023-06-26T08:13:40;96748.84;;;25.22;46.95
56142;BME280;42018;48.588;10.836;2023-06-26T08:16:25;96749.84;;;25.14;46.64
56142;BME280;42018;48.588;10.836;2023-06-26T08:19:14;96745.66;;;25.40;46.76
56142;BME280;42018;48.588;10.836;2023-06-26T08:22:00;96742.09;;;25.36;45.86
56142;BME280;42018;48.588;10.836;2023-06-26T08:24:45;96738.63;;;25.58;45.83
56142;BME280;42018;48.588;10.836;2023-06-26T08:27:32;96743.13;;;26.00;45.12
56142;BME280;42018;48.588;10.836;2023-06-26T08:30:17;96745.84;;;26.26;45.05
56142;BME280;42018;48.588;10.836;2023-06-26T08:33:02;96742.56;;;26.14;44.38
56142;BME280;42018;48.588;10.836;2023-06-26T08:35:48;96741.47;;;25.92;45.20
56142;BME280;42018;48.588;10.836;2023-06-26T08:38:33;96741.78;;;26.13;46.09
56142;BME280;42018;48.588;10.836;2023-06-26T08:41:19;96740.88;;;26.32;44.36
56142;BME280;42018;48.588;10.836;2023-06-26T08:44:04;96743.53;;;26.55;43.84
56142;BME280;42018;48.588;10.836;2023-06-26T08:46:51;96738.75;;;26.79;43.97
56142;BME280;42018;48.588;10.836;2023-06-26T08:49:47;96737.44;;;26.99;43.18
56142;BME280;42018;48.588;10.836;2023-06-26T08:52:36;96740.88;;;27.30;42.33
56142;BME280;42018;48.588;10.836;2023-06-26T08:55:23;96742.31;;;26.83;42.33
56142;BME280;42018;48.588;10.836;2023-06-26T08:58:11;96740.34;;;26.80;42.04
56142;BME280;42018;48.588;10.836;2023-06-26T09:00:57;96735.56;;;26.69;41.11
56142;BME280;42018;48.588;10.836;2023-06-26T09:03:44;96734.97;;;27.20;40.81
56142;BME280;42018;48.588;10.836;2023-06-26T09:06:29;96735.72;;;27.62;39.90
56142;BME280;42018;48.588;10.836;2023-06-26T09:09:15;96733.03;;;27.25;40.06
56142;BME280;42018;48.588;10.836;2023-06-26T09:12:02;96728.63;;;27.50;40.21
56142;BME280;42018;48.588;10.836;2023-06-26T09:14:49;96737.84;;;27.83;41.05
56142;BME280;42018;48.588;10.836;2023-06-26T09:17:39;96733.03;;;28.21;39.14
56142;BME280;42018;48.588;10.836;2023-06-26T09:20:27;96723.34;;;28.30;38.33
56142;BME280;42018;48.588;10.836;2023-06-26T09:23:13;96725.50;;;28.73;39.57
56142;BME280;42018;48.588;10.836;2023-06-26T09:25:58;96732.56;;;28.95;37.39
56142;BME280;42018;48.588;10.836;2023-06-26T09:28:44;96724.84;;;29.04;37.17
56142;BME280;42018;48.588;10.836;2023-06-26T09:31:29;96718.63;;;29.15;36.71
56142;BME280;42018;48.588;10.836;2023-06-26T09:34:14;96725.63;;;29.01;37.12
56142;BME280;42018;48.588;10.836;2023-06-26T09:37:00;96727.88;;;28.88;37.06
56142;BME280;42018;48.588;10.836;2023-06-26T09:39:50;96721.38;;;29.25;36.76
56142;BME280;42018;48.588;10.836;2023-06-26T09:42:36;96726.84;;;29.29;36.64
56142;BME280;42018;48.588;10.836;2023-06-26T09:45:21;96721.78;;;29.59;36.19
56142;BME280;42018;48.588;10.836;2023-06-26T09:48:07;96724.16;;;29.72;36.16
56142;BME280;42018;48.588;10.836;2023-06-26T09:50:53;96725.25;;;29.28;36.38
56142;BME280;42018;48.588;10.836;2023-06-26T09:53:42;96722.16;;;29.37;36.16
56142;BME280;42018;48.588;10.836;2023-06-26T09:56:28;96713.88;;;28.90;35.86
56142;BME280;42018;48.588;10.836;2023-06-26T09:59:15;96716.16;;;28.74;36.19
56142;BME280;42018;48.588;10.836;2023-06-26T10:02:00;96711.44;;;28.63;36.26
56142;BME280;42018;48.588;10.836;2023-06-26T10:04:46;96713.13;;;28.97;36.40
56142;BME280;42018;48.588;10.836;2023-06-26T10:07:31;96706.97;;;29.28;37.05
56142;BME280;42018;48.588;10.836;2023-06-26T10:10:18;96700.75;;;29.71;36.10
56142;BME280;42018;48.588;10.836;2023-06-26T10:13:08;96702.22;;;30.15;35.86
56142;BME280;42018;48.588;10.836;2023-06-26T10:15:57;96702.53;;;30.52;35.22
56142;BME280;42018;48.588;10.836;2023-06-26T10:18:44;96690.50;;;30.25;34.23
56142;BME280;42018;48.588;10.836;2023-06-26T10:21:30;96695.22;;;30.21;34.14
56142;BME280;42018;48.588;10.836;2023-06-26T10:24:17;96687.31;;;30.44;35.27
56142;BME280;42018;48.588;10.836;2023-06-26T10:27:09;96696.81;;;29.82;34.00
56142;BME280;42018;48.588;10.836;2023-06-26T10:30:01;96687.72;;;30.43;34.26
56142;BME280;42018;48.588;10.836;2023-06-26T10:32:48;96685.91;;;30.95;33.96
56142;BME280;42018;48.588;10.836;2023-06-26T10:35:44;96684.09;;;31.30;33.59
56142;BME280;42018;48.588;10.836;2023-06-26T10:38:49;96683.72;;;31.28;32.83
56142;BME280;42018;48.588;10.836;2023-06-26T10:41:41;96691.19;;;31.31;32.25
56142;BME280;42018;48.588;10.836;2023-06-26T10:44:40;96694.03;;;30.22;32.86
56142;BME280;42018;48.588;10.836;2023-06-26T10:47:29;96689.19;;;30.62;34.49
56142;BME280;42018;48.588;10.836;2023-06-26T10:50:26;96695.00;;;30.71;33.49
56142;BME280;42018;48.588;10.836;2023-06-26T10:53:22;96696.69;;;31.20;33.43
56142;BME280;42018;48.588;10.836;2023-06-26T10:56:10;96693.94;;;30.47;33.11
56142;BME280;42018;48.588;10.836;2023-06-26T10:59:11;96688.56;;;30.15;33.67
56142;BME280;42018;48.588;10.836;2023-06-26T11:02:04;96689.00;;;29.85;33.60
56142;BME280;42018;48.588;10.836;2023-06-26T11:04:50;96678.97;;;30.73;32.93
56142;BME280;42018;48.588;10.836;2023-06-26T11:10:54;96684.31;;;31.57;31.00
56142;BME280;42018;48.588;10.836;2023-06-26T11:13:41;96675.31;;;31.01;31.46
56142;BME280;42018;48.588;10.836;2023-06-26T11:16:27;96679.75;;;31.40;30.93
56142;BME280;42018;48.588;10.836;2023-06-26T11:19:13;96690.31;;;31.41;29.84
56142;BME280;42018;48.588;10.836;2023-06-26T11:22:01;96677.94;;;31.67;30.60
56142;BME280;42018;48.588;10.836;2023-06-26T11:24:49;96678.34;;;32.07;29.90
56142;BME280;42018;48.588;10.836;2023-06-26T11:27:42;96681.78;;;32.15;30.35
56142;BME280;42018;48.588;10.836;2023-06-26T11:30:27;96683.50;;;32.02;31.43
56142;BME280;42018;48.588;10.836;2023-06-26T11:33:12;96683.97;;;30.92;27.30
56142;BME280;42018;48.588;10.836;2023-06-26T11:36:08;96689.41;;;30.99;28.88
56142;BME280;42018;48.588;10.836;2023-06-26T11:38:57;96680.47;;;31.92;28.01
56142;BME280;42018;48.588;10.836;2023-06-26T11:41:45;96677.00;;;31.85;27.06
56142;BME280;42018;48.588;10.836;2023-06-26T11:44:30;96677.75;;;31.92;27.09
56142;BME280;42018;48.588;10.836;2023-06-26T11:47:18;96680.69;;;32.09;26.21
56142;BME280;42018;48.588;10.836;2023-06-26T11:50:04;96681.44;;;32.47;27.64
56142;BME280;42018;48.588;10.836;2023-06-26T11:52:57;96686.63;;;32.41;26.60
56142;BME280;42018;48.588;10.836;2023-06-26T11:55:43;96680.34;;;32.37;27.11
56142;BME280;42018;48.588;10.836;2023-06-26T11:58:29;96683.47;;;31.64;27.27
56142;BME280;42018;48.588;10.836;2023-06-26T12:01:17;96667.19;;;31.87;27.53
56142;BME280;42018;48.588;10.836;2023-06-26T12:04:08;96683.34;;;31.78;28.09
56142;BME280;42018;48.588;10.836;2023-06-26T12:06:54;96672.97;;;32.34;28.08
56142;BME280;42018;48.588;10.836;2023-06-26T12:09:43;96665.91;;;32.67;27.12
56142;BME280;42018;48.588;10.836;2023-06-26T12:12:31;96665.06;;;32.06;27.13
56142;BME280;42018;48.588;10.836;2023-06-26T12:15:19;96663.63;;;32.62;27.82
56142;BME280;42018;48.588;10.836;2023-06-26T12:18:08;96665.41;;;32.46;27.05
56142;BME280;42018;48.588;10.836;2023-06-26T12:20:54;96662.31;;;33.01;25.68
56142;BME280;42018;48.588;10.836;2023-06-26T12:23:40;96671.81;;;32.93;26.54
56142;BME280;42018;48.588;10.836;2023-06-26T12:26:25;96659.88;;;33.07;25.17
56142;BME280;42018;48.588;10.836;2023-06-26T12:29:14;96657.13;;;33.07;26.36
56142;BME280;42018;48.588;10.836;2023-06-26T12:32:00;96661.28;;;32.61;26.44
56142;BME280;42018;48.588;10.836;2023-06-26T12:34:49;96654.94;;;32.67;27.39
56142;BME280;42018;48.588;10.836;2023-06-26T12:37:38;96656.09;;;32.97;26.13
56142;BME280;42018;48.588;10.836;2023-06-26T12:40:25;96656.47;;;33.50;27.09
56142;BME280;42018;48.588;10.836;2023-06-26T12:43:11;96647.28;;;33.60;25.54
56142;BME280;42018;48.588;10.836;2023-06-26T12:45:57;96647.34;;;34.00;25.39
56142;BME280;42018;48.588;10.836;2023-06-26T12:48:43;96644.88;;;34.25;25.58
56142;BME280;42018;48.588;10.836;2023-06-26T12:51:31;96652.97;;;33.93;25.17
56142;BME280;42018;48.588;10.836;2023-06-26T12:54:16;96650.59;;;33.71;25.53
56142;BME280;42018;48.588;10.836;2023-06-26T12:57:02;96637.16;;;34.20;25.52
56142;BME280;42018;48.588;10.836;2023-06-26T12:59:49;96640.28;;;33.99;24.48
56142;BME280;42018;48.588;10.836;2023-06-26T13:02:34;96634.88;;;34.15;24.87
56142;BME280;42018;48.588;10.836;2023-06-26T13:05:20;96641.16;;;34.16;25.01
56142;BME280;42018;48.588;10.836;2023-06-26T13:08:05;96636.44;;;34.16;25.11
56142;BME280;42018;48.588;10.836;2023-06-26T13:10:50;96642.56;;;34.24;25.44
56142;BME280;42018;48.588;10.836;2023-06-26T13:13:36;96641.38;;;34.05;24.90
56142;BME280;42018;48.588;10.836;2023-06-26T13:16:21;96633.81;;;34.29;25.10
56142;BME280;42018;48.588;10.836;2023-06-26T13:19:07;96634.66;;;34.26;25.16
56142;BME280;42018;48.588;10.836;2023-06-26T13:21:53;96623.88;;;34.55;25.20
56142;BME280;42018;48.588;10.836;2023-06-26T13:24:38;96630.31;;;34.65;26.07
56142;BME280;42018;48.588;10.836;2023-06-26T13:27:24;96626.50;;;34.02;25.04
56142;BME280;42018;48.588;10.836;2023-06-26T13:30:10;96626.97;;;33.30;26.54
56142;BME280;42018;48.588;10.836;2023-06-26T13:32:55;96632.06;;;33.05;27.20
56142;BME280;42018;48.588;10.836;2023-06-26T13:35:40;96625.38;;;32.52;27.08
56142;BME280;42018;48.588;10.836;2023-06-26T13:38:26;96633.75;;;33.22;27.06
56142;BME280;42018;48.588;10.836;2023-06-26T13:41:12;96626.69;;;33.48;26.75
56142;BME280;42018;48.588;10.836;2023-06-26T13:43:57;96635.91;;;33.81;26.48
56142;BME280;42018;48.588;10.836;2023-06-26T13:46:42;96632.22;;;33.45;26.57
56142;BME280;42018;48.588;10.836;2023-06-26T13:49:28;96626.47;;;32.85;27.48
56142;BME280;42018;48.588;10.836;2023-06-26T13:52:13;96622.09;;;32.60;27.98
56142;BME280;42018;48.588;10.836;2023-06-26T13:54:59;96625.78;;;32.77;28.26
56142;BME280;42018;48.588;10.836;2023-06-26T13:57:44;96624.09;;;32.60;28.14
56142;BME280;42018;48.588;10.836;2023-06-26T14:00:33;96620.50;;;32.63;27.12
56142;BME280;42018;48.588;10.836;2023-06-26T14:03:19;96621.78;;;32.55;28.00
56142;BME280;42018;48.588;10.836;2023-06-26T14:06:04;96622.19;;;32.23;28.45
56142;BME280;42018;48.588;10.836;2023-06-26T14:08:49;96623.28;;;31.57;28.82
56142;BME280;42018;48.588;10.836;2023-06-26T14:11:35;96619.69;;;31.63;29.65
56142;BME280;42018;48.588;10.836;2023-06-26T14:14:20;96619.13;;;31.79;29.74
56142;BME280;42018;48.588;10.836;2023-06-26T14:17:06;96625.78;;;31.78;29.54
56142;BME280;42018;48.588;10.836;2023-06-26T14:19:54;96618.47;;;32.36;29.76
56142;BME280;42018;48.588;10.836;2023-06-26T14:22:39;96622.94;;;32.84;29.61
56142;BME280;42018;48.588;10.836;2023-06-26T14:25:25;96618.00;;;32.72;29.29
56142;BME280;42018;48.588;10.836;2023-06-26T14:28:13;96614.53;;;32.37;29.48
56142;BME280;42018;48.588;10.836;2023-06-26T14:30:58;96615.56;;;32.20;30.21
56142;BME280;42018;48.588;10.836;2023-06-26T14:33:43;96625.91;;;32.05;30.98
56142;BME280;42018;48.588;10.836;2023-06-26T14:36:29;96619.72;;;31.98;30.73
56142;BME280;42018;48.588;10.836;2023-06-26T14:39:17;96613.09;;;32.29;30.10
56142;BME280;42018;48.588;10.836;2023-06-26T14:42:02;96615.69;;;32.09;30.88
56142;BME280;42018;48.588;10.836;2023-06-26T14:44:48;96608.56;;;32.15;30.43
56142;BME280;42018;48.588;10.836;2023-06-26T14:47:35;96606.22;;;32.48;29.88
56142;BME280;42018;48.588;10.836;2023-06-26T14:50:23;96596.00;;;32.18;30.86
56142;BME280;42018;48.588;10.836;2023-06-26T14:53:08;96599.22;;;32.43;30.41
56142;BME280;42018;48.588;10.836;2023-06-26T14:55:54;96597.19;;;32.48;30.97
56142;BME280;42018;48.588;10.836;2023-06-26T14:58:40;96599.59;;;32.46;30.85
56142;BME280;42018;48.588;10.836;2023-06-26T15:01:25;96598.41;;;32.47;30.23
56142;BME280;42018;48.588;10.836;2023-06-26T15:04:11;96602.19;;;32.56;30.58
56142;BME280;42018;48.588;10.836;2023-06-26T15:06:57;96601.44;;;31.50;31.19
56142;BME280;42018;48.588;10.836;2023-06-26T15:09:43;96601.75;;;31.97;30.97
56142;BME280;42018;48.588;10.836;2023-06-26T15:12:28;96601.28;;;32.02;31.22
56142;BME280;42018;48.588;10.836;2023-06-26T15:15:14;96590.94;;;31.79;30.30
56142;BME280;42018;48.588;10.836;2023-06-26T15:18:03;96586.97;;;31.83;31.70
56142;BME280;42018;48.588;10.836;2023-06-26T15:20:49;96598.41;;;31.78;31.76
56142;BME280;42018;48.588;10.836;2023-06-26T15:23:35;96593.56;;;31.52;30.37
56142;BME280;42018;48.588;10.836;2023-06-26T15:26:20;96580.22;;;31.57;30.35
56142;BME280;42018;48.588;10.836;2023-06-26T15:29:05;96586.13;;;31.56;31.65
56142;BME280;42018;48.588;10.836;2023-06-26T15:31:52;96577.34;;;31.71;31.78
56142;BME280;42018;48.588;10.836;2023-06-26T15:34:38;96567.38;;;31.51;31.78
56142;BME280;42018;48.588;10.836;2023-06-26T15:37:24;96565.41;;;31.51;31.99
56142;BME280;42018;48.588;10.836;2023-06-26T15:40:09;96561.34;;;31.66;31.60
56142;BME280;42018;48.588;10.836;2023-06-26T15:42:56;96556.06;;;31.48;31.79
56142;BME280;42018;48.588;10.836;2023-06-26T15:45:41;96562.28;;;31.53;32.81
56142;BME280;42018;48.588;10.836;2023-06-26T15:48:27;96556.91;;;31.42;31.62
56142;BME280;42018;48.588;10.836;2023-06-26T15:51:13;96557.88;;;31.21;31.73
56142;BME280;42018;48.588;10.836;2023-06-26T15:54:00;96549.50;;;30.94;33.27
56142;BME280;42018;48.588;10.836;2023-06-26T15:56:45;96545.91;;;31.04;34.25
56142;BME280;42018;48.588;10.836;2023-06-26T15:59:31;96550.63;;;31.00;33.30
56142;BME280;42018;48.588;10.836;2023-06-26T16:02:17;96543.03;;;30.66;33.49
56142;BME280;42018;48.588;10.836;2023-06-26T16:05:03;96555.09;;;30.76;34.26
56142;BME280;42018;48.588;10.836;2023-06-26T16:07:48;96558.59;;;30.80;34.60
56142;BME280;42018;48.588;10.836;2023-06-26T16:10:34;96551.34;;;30.48;35.47
56142;BME280;42018;48.588;10.836;2023-06-26T16:13:19;96553.84;;;30.25;36.50
56142;BME280;42018;48.588;10.836;2023-06-26T16:16:06;96556.19;;;30.23;36.82
56142;BME280;42018;48.588;10.836;2023-06-26T16:18:55;96554.34;;;29.95;37.26
56142;BME280;42018;48.588;10.836;2023-06-26T16:21:40;96559.78;;;30.02;38.04
56142;BME280;42018;48.588;10.836;2023-06-26T16:24:25;96562.97;;;29.86;38.72
56142;BME280;42018;48.588;10.836;2023-06-26T16:27:11;96578.16;;;29.94;39.02
56142;BME280;42018;48.588;10.836;2023-06-26T16:29:56;96582.94;;;29.54;38.50
56142;BME280;42018;48.588;10.836;2023-06-26T16:32:43;96583.72;;;29.48;39.31
56142;BME280;42018;48.588;10.836;2023-06-26T16:35:28;96588.00;;;29.52;39.05
56142;BME280;42018;48.588;10.836;2023-06-26T16:38:15;96607.84;;;28.67;40.84
56142;BME280;42018;48.588;10.836;2023-06-26T16:41:00;96617.72;;;27.95;42.92
56142;BME280;42018;48.588;10.836;2023-06-26T16:43:46;96612.50;;;27.68;43.74
56142;BME280;42018;48.588;10.836;2023-06-26T16:46:31;96614.28;;;27.43;44.07
56142;BME280;42018;48.588;10.836;2023-06-26T16:49:17;96615.44;;;27.42;44.46
56142;BME280;42018;48.588;10.836;2023-06-26T16:52:02;96623.22;;;27.43;44.52
56142;BME280;42018;48.588;10.836;2023-06-26T16:54:48;96622.13;;;27.55;44.66
56142;BME280;42018;48.588;10.836;2023-06-26T16:57:33;96621.25;;;27.40;44.97
56142;BME280;42018;48.588;10.836;2023-06-26T17:00:19;96620.16;;;27.52;44.56
56142;BME280;42018;48.588;10.836;2023-06-26T17:03:05;96634.09;;;27.40;45.21
56142;BME280;42018;48.588;10.836;2023-06-26T17:05:50;96638.63;;;27.25;45.41
56142;BME280;42018;48.588;10.836;2023-06-26T17:08:36;96643.63;;;27.19;46.44
56142;BME280;42018;48.588;10.836;2023-06-26T17:11:21;96635.13;;;27.28;46.68
56142;BME280;42018;48.588;10.836;2023-06-26T17:14:07;96640.63;;;27.35;45.86
56142;BME280;42018;48.588;10.836;2023-06-26T17:16:52;96642.53;;;27.28;46.70
56142;BME280;42018;48.588;10.836;2023-06-26T17:19:38;96654.19;;;27.28;46.53
56142;BME280;42018;48.588;10.836;2023-06-26T17:22:24;96645.13;;;26.72;47.88
56142;BME280;42018;48.588;10.836;2023-06-26T17:25:09;96648.50;;;27.03;47.83
56142;BME280;42018;48.588;10.836;2023-06-26T17:27:56;96653.50;;;26.94;48.00
56142;BME280;42018;48.588;10.836;2023-06-26T17:30:42;96663.47;;;26.83;47.08
56142;BME280;42018;48.588;10.836;2023-06-26T17:33:28;96662.50;;;26.64;47.69
56142;BME280;42018;48.588;10.836;2023-06-26T17:36:14;96658.88;;;26.53;47.23
56142;BME280;42018;48.588;10.836;2023-06-26T17:39:02;96663.75;;;26.74;45.57
56142;BME280;42018;48.588;10.836;2023-06-26T17:41:47;96669.00;;;26.90;44.82
56142;BME280;42018;48.588;10.836;2023-06-26T17:44:34;96669.53;;;27.10;44.24
56142;BME280;42018;48.588;10.836;2023-06-26T17:47:20;96665.47;;;27.27;44.87
56142;BME280;42018;48.588;10.836;2023-06-26T17:50:05;96665.84;;;27.25;43.26
56142;BME280;42018;48.588;10.836;2023-06-26T17:52:51;96665.28;;;27.09;41.71
56142;BME280;42018;48.588;10.836;2023-06-26T17:55:37;96665.59;;;27.04;40.19
56142;BME280;42018;48.588;10.836;2023-06-26T17:58:23;96669.66;;;26.80;38.18
56142;BME280;42018;48.588;10.836;2023-06-26T18:01:08;96677.97;;;26.60;39.10
56142;BME280;42018;48.588;10.836;2023-06-26T18:03:54;96683.09;;;26.65;39.02
56142;BME280;42018;48.588;10.836;2023-06-26T18:06:39;96688.66;;;26.46;38.46
56142;BME280;42018;48.588;10.836;2023-06-26T18:09:24;96694.28;;;26.30;37.90
56142;BME280;42018;48.588;10.836;2023-06-26T18:12:10;96693.31;;;26.45;38.46
56142;BME280;42018;48.588;10.836;2023-06-26T18:14:55;96697.16;;;26.41;38.54
56142;BME280;42018;48.588;10.836;2023-06-26T18:17:41;96702.69;;;26.21;37.96
56142;BME280;42018;48.588;10.836;2023-06-26T18:20:26;96701.84;;;26.14;38.16
56142;BME280;42018;48.588;10.836;2023-06-26T18:23:11;96702.41;;;26.26;38.06
56142;BME280;42018;48.588;10.836;2023-06-26T18:25:57;96709.38;;;26.27;37.81
56142;BME280;42018;48.588;10.836;2023-06-26T18:28:43;96714.31;;;26.18;38.37
56142;BME280;42018;48.588;10.836;2023-06-26T18:31:29;96714.59;;;26.10;38.06
56142;BME280;42018;48.588;10.836;2023-06-26T18:34:14;96715.75;;;26.09;37.82
56142;BME280;42018;48.588;10.836;2023-06-26T18:37:00;96724.66;;;26.09;37.57
56142;BME280;42018;48.588;10.836;2023-06-26T18:39:45;96740.47;;;26.03;37.94
56142;BME280;42018;48.588;10.836;2023-06-26T18:42:31;96731.44;;;25.96;38.23
56142;BME280;42018;48.588;10.836;2023-06-26T18:45:16;96743.56;;;26.02;38.20
56142;BME280;42018;48.588;10.836;2023-06-26T18:48:02;96745.25;;;25.84;38.00
56142;BME280;42018;48.588;10.836;2023-06-26T18:50:50;96755.34;;;25.64;38.81
56142;BME280;42018;48.588;10.836;2023-06-26T18:53:35;96769.59;;;25.57;39.32
56142;BME280;42018;48.588;10.836;2023-06-26T18:56:23;96772.00;;;25.62;39.06
56142;BME280;42018;48.588;10.836;2023-06-26T18:59:09;96788.28;;;25.62;39.28
56142;BME280;42018;48.588;10.836;2023-06-26T19:01:55;96786.41;;;25.43;39.75
56142;BME280;42018;48.588;10.836;2023-06-26T19:04:41;96786.19;;;25.52;40.01
56142;BME280;42018;48.588;10.836;2023-06-26T19:07:26;96795.09;;;25.52;39.85
56142;BME280;42018;48.588;10.836;2023-06-26T19:10:12;96796.19;;;25.48;39.42
56142;BME280;42018;48.588;10.836;2023-06-26T19:13:01;96807.56;;;25.34;39.90
56142;BME280;42018;48.588;10.836;2023-06-26T19:15:47;96808.78;;;25.37;39.65
56142;BME280;42018;48.588;10.836;2023-06-26T19:18:32;96810.41;;;25.41;39.92
56142;BME280;42018;48.588;10.836;2023-06-26T19:21:17;96811.56;;;25.40;40.15
56142;BME280;42018;48.588;10.836;2023-06-26T19:24:03;96812.22;;;25.34;40.01
56142;BME280;42018;48.588;10.836;2023-06-26T19:26:48;96811.13;;;25.38;40.47
56142;BME280;42018;48.588;10.836;2023-06-26T19:29:34;96811.44;;;25.33;40.42
56142;BME280;42018;48.588;10.836;2023-06-26T19:32:20;96809.56;;;25.18;39.82
56142;BME280;42018;48.588;10.836;2023-06-26T19:35:06;96821.63;;;25.20;40.53
56142;BME280;42018;48.588;10.836;2023-06-26T19:37:51;96821.38;;;24.90;40.21
56142;BME280;42018;48.588;10.836;2023-06-26T19:40:36;96818.91;;;24.62;40.38
56142;BME280;42018;48.588;10.836;2023-06-26T19:43:22;96830.03;;;24.76;40.01
56142;BME280;42018;48.588;10.836;2023-06-26T19:46:08;96832.00;;;24.60;39.95